MV Akson Sara — H3GG — position and weather

sailwx.info

Track history (hours):
 
Tides and Currents Weather Stations Pressure Air Temp Water Temp Dewpoint Dewpoint Depression Visibility Wind Speed Wind Dir Waves Ship Positions

MV Akson Sara

Last reported at 2018-Apr-23 16:43 UTC. Time now 2018-Apr-23 19:32 UTC.
Position N 40°18' W 009°50'.

Length 190 m; draft 6 m.

Type: Cargo ship. MMSI: 356182000.

Date/timePositionNaut miles runAvg speedWind from/ knotsBaromVisibWave heightAir tempDewpointWater temp
2018-Apr-23 16:43N 40°18' W 009°50'211.3
2018-Apr-23 16:30N 40°16' W 009°50'2211.3
2018-Apr-23 14:34N 39°54' W 009°50'111.2
2018-Apr-23 14:30N 39°53' W 009°50'611.4
2018-Apr-23 13:57N 39°47' W 009°50'511.7
2018-Apr-23 13:30N 39°42' W 009°50'711.7
2018-Apr-23 12:56N 39°35' W 009°50'511.9
2018-Apr-23 12:30N 39°30' W 009°50'612.1
2018-Apr-23 12:00N 39°24' W 009°51'611.9
2018-Apr-23 11:30N 39°18' W 009°51'612.0
2018-Apr-23 11:00N 39°12' W 009°51'611.8
2018-Apr-23 10:30N 39°06' W 009°51'611.7
2018-Apr-23 10:00N 39°00' W 009°51'611.9
2018-Apr-23 09:30N 38°54' W 009°51'612.2
2018-Apr-23 09:00N 38°48' W 009°51'612.3
2018-Apr-23 08:30N 38°42' W 009°51'612.4
2018-Apr-23 08:00N 38°36' W 009°49'612.5
2018-Apr-23 07:30N 38°30' W 009°48'612.0
2018-Apr-23 07:00N 38°24' W 009°46'612.2
2018-Apr-23 06:30N 38°18' W 009°44'612.2
2018-Apr-23 06:00N 38°12' W 009°42'612.0
2018-Apr-23 05:30N 38°06' W 009°41'612.0
2018-Apr-23 05:00N 38°00' W 009°39'612.1
2018-Apr-23 04:30N 37°55' W 009°37'612.2
2018-Apr-23 04:00N 37°49' W 009°36'612.3
2018-Apr-23 03:30N 37°43' W 009°34'612.7
2018-Apr-23 03:00N 37°36' W 009°32'812.5
2018-Apr-23 02:23N 37°29' W 009°30'5111.8
2018-Apr-22 22:04N 36°43' W 009°01'113.1
2018-Apr-22 22:00N 36°43' W 009°00'1113.1
2018-Apr-22 21:10N 36°40' W 008°47'1112.8
2018-Apr-22 20:20N 36°37' W 008°34'15011.8
2018-Apr-22 07:39N 35°58' W 005°35'110.5
2018-Apr-22 07:30N 35°59' W 005°33'4 9.0
2018-Apr-22 07:00N 36°00' W 005°28'4 7.3
2018-Apr-22 06:30N 36°02' W 005°24'4 7.9
2018-Apr-22 06:00N 36°06' W 005°23'3 5.3
2018-Apr-22 05:30N 36°09' W 005°23'0 0.2
2018-Apr-22 05:00N 36°09' W 005°23'0 0.1
2018-Apr-22 04:30N 36°09' W 005°23'0 0.1
2018-Apr-22 04:00N 36°09' W 005°23'0 0.1
2018-Apr-22 03:30N 36°09' W 005°23'0 0.1
2018-Apr-22 03:00N 36°09' W 005°23'0 0.1
2018-Apr-22 02:30N 36°09' W 005°23'0 0.1
2018-Apr-22 02:00N 36°09' W 005°23'0 0.0
2018-Apr-22 01:30N 36°09' W 005°23'0 0.1
2018-Apr-22 01:00N 36°09' W 005°23'0 0.3
2018-Apr-22 00:30N 36°09' W 005°23'1 2.3
2018-Apr-21 23:58N 36°07' W 005°22'2 4.9
2018-Apr-21 23:30N 36°05' W 005°21'9 0.5
2018-Apr-21 04:19N 36°07' W 005°10'1 3.8
2018-Apr-21 03:59N 36°06' W 005°12'2 4.7
2018-Apr-21 03:30N 36°06' W 005°14'0 1.0
2018-Apr-21 03:00N 36°06' W 005°15'  
Track history (hours):
 
Tides and Currents Weather Stations Pressure Air Temp Water Temp Dewpoint Dewpoint Depression Visibility Wind Speed Wind Dir Waves Ship Positions

MV Akson Sara

Last reported at 2018-Apr-23 16:43 UTC. Time now 2018-Apr-23 19:32 UTC.
Position N 40°18' W 009°50'.

Length 190 m; draft 6 m.

Type: Cargo ship. MMSI: 356182000.

Date/timePositionNaut miles runAvg speedWind from/ knotsBaromVisibWave heightAir tempDewpointWater temp
2018-Apr-23 16:43N 40°18' W 009°50'211.3
2018-Apr-23 16:30N 40°16' W 009°50'2211.3
2018-Apr-23 14:34N 39°54' W 009°50'111.2
2018-Apr-23 14:30N 39°53' W 009°50'611.4
2018-Apr-23 13:57N 39°47' W 009°50'511.7
2018-Apr-23 13:30N 39°42' W 009°50'711.7
2018-Apr-23 12:56N 39°35' W 009°50'511.9
2018-Apr-23 12:30N 39°30' W 009°50'612.1
2018-Apr-23 12:00N 39°24' W 009°51'611.9
2018-Apr-23 11:30N 39°18' W 009°51'612.0
2018-Apr-23 11:00N 39°12' W 009°51'611.8
2018-Apr-23 10:30N 39°06' W 009°51'611.7
2018-Apr-23 10:00N 39°00' W 009°51'611.9
2018-Apr-23 09:30N 38°54' W 009°51'612.2
2018-Apr-23 09:00N 38°48' W 009°51'612.3
2018-Apr-23 08:30N 38°42' W 009°51'612.4
2018-Apr-23 08:00N 38°36' W 009°49'612.5
2018-Apr-23 07:30N 38°30' W 009°48'612.0
2018-Apr-23 07:00N 38°24' W 009°46'612.2
2018-Apr-23 06:30N 38°18' W 009°44'612.2
2018-Apr-23 06:00N 38°12' W 009°42'612.0
2018-Apr-23 05:30N 38°06' W 009°41'612.0
2018-Apr-23 05:00N 38°00' W 009°39'612.1
2018-Apr-23 04:30N 37°55' W 009°37'612.2
2018-Apr-23 04:00N 37°49' W 009°36'612.3
2018-Apr-23 03:30N 37°43' W 009°34'612.7
2018-Apr-23 03:00N 37°36' W 009°32'812.5
2018-Apr-23 02:23N 37°29' W 009°30'5111.8
2018-Apr-22 22:04N 36°43' W 009°01'113.1
2018-Apr-22 22:00N 36°43' W 009°00'1113.1
2018-Apr-22 21:10N 36°40' W 008°47'1112.8
2018-Apr-22 20:20N 36°37' W 008°34'15011.8
2018-Apr-22 07:39N 35°58' W 005°35'110.5
2018-Apr-22 07:30N 35°59' W 005°33'4 9.0
2018-Apr-22 07:00N 36°00' W 005°28'4 7.3
2018-Apr-22 06:30N 36°02' W 005°24'4 7.9
2018-Apr-22 06:00N 36°06' W 005°23'3 5.3
2018-Apr-22 05:30N 36°09' W 005°23'0 0.2
2018-Apr-22 05:00N 36°09' W 005°23'0 0.1
2018-Apr-22 04:30N 36°09' W 005°23'0 0.1
2018-Apr-22 04:00N 36°09' W 005°23'0 0.1
2018-Apr-22 03:30N 36°09' W 005°23'0 0.1
2018-Apr-22 03:00N 36°09' W 005°23'0 0.1
2018-Apr-22 02:30N 36°09' W 005°23'0 0.1
2018-Apr-22 02:00N 36°09' W 005°23'0 0.0
2018-Apr-22 01:30N 36°09' W 005°23'0 0.1
2018-Apr-22 01:00N 36°09' W 005°23'0 0.3
2018-Apr-22 00:30N 36°09' W 005°23'1 2.3
2018-Apr-21 23:58N 36°07' W 005°22'2 4.9
2018-Apr-21 23:30N 36°05' W 005°21'9 0.5
2018-Apr-21 04:19N 36°07' W 005°10'1 3.8
2018-Apr-21 03:59N 36°06' W 005°12'2 4.7
2018-Apr-21 03:30N 36°06' W 005°14'0 1.0
2018-Apr-21 03:00N 36°06' W 005°15'  

Dump ship's entire track history